Search for airport 
image banner adimage banner adimage banner ad
image banner ad

CSN6 - Saint John (Saint John Regional Hospital)

Located in , Canada

ICAO - CSN6, IATA -

Data provided by Airmate  

General information

Coordinates: N45°18'8" W66°5'17"
Elevation is 246 feet MSL.
Magnetic variation is -17.55° East
View others Airports in New Brunswick

Operational data

Special qualification required
Current time UTC:
Current local time:
Weather at : CYSJ - Saint John ( 16 km )
METAR: CYSJ 191100Z 27004KT 15SM FEW020 FEW080 SCT250 04/03 A2961 RMK CU1AC2CI2 CU TR SLP032
TAF: TAF CYSJ 190538Z 1906/1918 29006KT P6SM SCT080 FM191400 28012KT P6SM BKN030 TEMPO 1915/1918 P6SM -SHRA BKN020 RMK NXT FCST BY 191200Z
View NOTAMs / SUP AIP / TFR affecting this airport [VIEW]
Communications frequencies: [VIEW]

Runways:

Airport contact information

Address: Canada

Satellite view of CSN6